createdAt,value
2019-04-07T00:01:35.473Z,94.50
2019-04-07T00:04:04.338Z,94.60
2019-04-07T00:06:33.257Z,94.70
2019-04-07T00:09:02.684Z,94.90
2019-04-07T00:11:32.338Z,94.80
2019-04-07T00:14:01.292Z,95.00
2019-04-07T00:16:30.892Z,95.00
2019-04-07T00:19:00.148Z,95.10
2019-04-07T00:21:29.201Z,95.20
2019-04-07T00:23:58.124Z,95.50
2019-04-07T00:26:26.995Z,95.40
2019-04-07T00:28:55.839Z,95.60
2019-04-07T00:31:24.964Z,95.60
2019-04-07T00:33:53.839Z,95.70
2019-04-07T00:36:22.963Z,95.70
2019-04-07T00:38:51.826Z,95.90
2019-04-07T00:41:20.990Z,96.20
2019-04-07T00:43:49.910Z,96.40
2019-04-07T00:46:19.090Z,96.60
2019-04-07T00:48:48.567Z,96.50
2019-04-07T00:51:17.855Z,96.40
2019-04-07T00:53:47.042Z,96.20
2019-04-07T00:56:16.083Z,96.30
2019-04-07T00:58:45.554Z,96.50
2019-04-07T01:01:16.451Z,96.30
2019-04-07T01:03:45.603Z,96.10
2019-04-07T01:06:14.603Z,96.30
2019-04-07T01:08:43.748Z,96.20
2019-04-07T01:11:13.445Z,95.80
2019-04-07T01:13:42.778Z,95.60
2019-04-07T01:16:11.941Z,95.70
2019-04-07T01:18:40.902Z,96.10
2019-04-07T01:21:09.827Z,96.50
2019-04-07T01:23:38.966Z,96.80
2019-04-07T01:26:08.559Z,96.90
2019-04-07T01:28:37.557Z,97.10
2019-04-07T01:31:07.081Z,97.10
2019-04-07T01:33:36.713Z,97.00
2019-04-07T01:36:05.749Z,97.10
2019-04-07T01:38:34.639Z,97.00
2019-04-07T01:41:05.075Z,97.20
2019-04-07T01:43:35.607Z,97.30
2019-04-07T01:46:21.726Z,97.40
2019-04-07T01:48:58.592Z,97.30
2019-04-07T01:51:45.540Z,97.20
2019-04-07T01:54:28.335Z,97.00
2019-04-07T01:56:59.081Z,97.50
2019-04-07T01:59:45.889Z,97.10
2019-04-07T02:02:25.274Z,97.00
2019-04-07T02:05:12.036Z,97.10
2019-04-07T02:07:59.176Z,97.30
2019-04-07T02:10:29.642Z,97.40
2019-04-07T02:13:15.238Z,97.30
2019-04-07T02:16:02.802Z,97.30
2019-04-07T02:18:45.446Z,97.20
2019-04-07T02:21:19.611Z,97.00
2019-04-07T02:24:06.414Z,97.10
2019-04-07T02:26:36.920Z,97.10
2019-04-07T02:29:22.429Z,97.50
2019-04-07T02:31:55.694Z,97.50
2019-04-07T02:34:38.063Z,97.60
2019-04-07T02:37:24.627Z,97.60
2019-04-07T02:40:11.799Z,97.50
2019-04-07T02:42:42.780Z,97.60
2019-04-07T02:45:17.044Z,97.30
2019-04-07T02:47:51.296Z,97.10
2019-04-07T02:50:24.505Z,97.40
2019-04-07T02:52:57.214Z,97.40
2019-04-07T02:55:28.125Z,97.00
2019-04-07T02:58:04.517Z,97.30
2019-04-07T03:00:46.998Z,97.40
2019-04-07T03:03:23.141Z,97.60
2019-04-07T03:05:56.595Z,97.60
2019-04-07T03:08:30.233Z,97.90
2019-04-07T03:11:16.718Z,98.00
2019-04-07T03:13:57.108Z,98.00
2019-04-07T03:16:33.534Z,98.00
2019-04-07T03:19:10.113Z,97.90
2019-04-07T03:21:43.347Z,97.80
2019-04-07T03:24:14.190Z,97.80
2019-04-07T03:27:02.764Z,98.00
2019-04-07T03:29:33.488Z,98.10
2019-04-07T03:32:17.061Z,98.10
2019-04-07T03:34:46.640Z,98.30
2019-04-07T03:37:35.081Z,97.60
2019-04-07T03:39:55.180Z,97.60
2019-04-07T03:42:38.533Z,97.70
2019-04-07T03:45:15.776Z,97.70
2019-04-07T03:47:52.411Z,98.00
2019-04-07T03:50:31.857Z,97.20
2019-04-07T03:53:11.167Z,96.70
2019-04-07T03:55:44.338Z,96.40
2019-04-07T03:58:20.563Z,96.80
2019-04-07T04:01:11.290Z,98.80
2019-04-07T04:03:59.012Z,99.90
2019-04-07T04:06:46.088Z,98.90
2019-04-07T04:09:19.323Z,98.40
2019-04-07T04:12:01.610Z,98.40
2019-04-07T04:14:43.892Z,98.50
2019-04-07T04:17:13.022Z,98.70
2019-04-07T04:19:44.344Z,98.60
2019-04-07T04:22:14.114Z,98.60
2019-04-07T04:24:43.673Z,98.30
2019-04-07T04:27:12.928Z,98.30
2019-04-07T04:29:41.751Z,98.00
2019-04-07T04:32:10.657Z,98.00
2019-04-07T04:34:39.500Z,98.20
2019-04-07T04:37:09.463Z,98.30
2019-04-07T04:39:38.823Z,98.50
2019-04-07T04:42:08.458Z,98.60
2019-04-07T04:44:37.976Z,98.50
2019-04-07T04:47:06.895Z,98.30
2019-04-07T04:49:35.727Z,98.00
2019-04-07T04:52:05.150Z,97.80
2019-04-07T04:54:34.164Z,98.10
2019-04-07T04:57:06.357Z,98.60
2019-04-07T04:59:33.600Z,98.30
2019-04-07T05:02:02.491Z,98.40
2019-04-07T05:04:31.858Z,98.30
2019-04-07T05:07:01.444Z,98.20
2019-04-07T05:09:41.142Z,98.20
2019-04-07T05:12:00.968Z,98.20
2019-04-07T05:14:29.824Z,98.10
2019-04-07T05:16:58.699Z,98.20
2019-04-07T05:19:30.071Z,98.10
2019-04-07T05:25:40.322Z,97.40
2019-04-07T05:28:01.984Z,97.20
2019-04-07T05:30:20.568Z,97.40
2019-04-07T05:32:52.421Z,97.40
2019-04-07T05:35:22.964Z,97.50
2019-04-07T05:38:01.818Z,97.80
2019-04-07T05:40:22.338Z,97.90
2019-04-07T05:42:51.231Z,97.80
2019-04-07T05:45:20.463Z,97.30
2019-04-07T05:50:41.251Z,97.70
2019-04-07T05:53:13.464Z,93.60
2019-04-07T05:55:40.659Z,84.00
2019-04-07T05:58:11.990Z,70.60
2019-04-07T06:00:45.798Z,61.50
2019-04-07T06:03:15.338Z,55.50
2019-04-07T06:05:47.326Z,53.20
2019-04-07T06:08:27.056Z,50.10
2019-04-07T06:10:45.884Z,48.50
2019-04-07T06:13:15.703Z,46.70
2019-04-07T06:15:44.665Z,44.60
2019-04-07T06:18:16.148Z,44.10
2019-04-07T06:20:46.364Z,42.90
2019-04-07T06:23:23.305Z,43.20
2019-04-07T06:25:52.347Z,41.80
2019-04-07T06:28:21.314Z,40.70
2019-04-07T07:16:29.895Z,42.80
2019-04-07T07:19:11.407Z,42.20
2019-04-07T07:24:59.274Z,41.20
2019-04-07T07:27:29.145Z,41.00
2019-04-07T07:29:58.063Z,42.90
2019-04-07T07:32:29.150Z,41.10
2019-04-07T07:34:58.679Z,41.00
2019-04-07T07:37:28.088Z,40.70
2019-04-07T07:39:57.012Z,40.10
2019-04-07T07:42:25.760Z,43.30
2019-04-07T07:44:54.541Z,40.80
2019-04-07T07:47:24.352Z,42.40
2019-04-07T07:49:53.678Z,41.60
2019-04-07T07:52:27.761Z,41.50
2019-04-07T07:54:59.801Z,44.00
2019-04-07T07:57:27.293Z,46.40
2019-04-07T07:59:56.446Z,51.40
2019-04-07T08:02:25.316Z,52.30
2019-04-07T08:04:56.740Z,54.20
2019-04-07T08:07:24.769Z,57.80
2019-04-07T08:09:54.381Z,57.50
2019-04-07T08:12:23.939Z,55.20
2019-04-07T08:14:55.570Z,54.60
2019-04-07T08:17:23.862Z,53.00
2019-04-07T08:19:52.762Z,53.00
2019-04-07T08:22:29.917Z,51.20
2019-04-07T08:24:56.823Z,51.30
2019-04-07T08:27:29.310Z,50.40
2019-04-07T08:29:57.156Z,49.00
2019-04-07T08:32:29.623Z,49.60
2019-04-07T08:34:56.986Z,50.30
2019-04-07T08:37:25.855Z,46.80
2019-04-07T08:39:57.007Z,48.10
2019-04-07T08:42:25.317Z,48.50
2019-04-07T08:44:57.234Z,46.30
2019-04-07T08:47:24.709Z,49.00
2019-04-07T08:49:55.594Z,46.70
2019-04-07T08:52:24.063Z,47.50
2019-04-07T08:54:53.502Z,50.10
2019-04-07T08:57:22.595Z,49.50
2019-04-07T08:59:51.465Z,49.00
2019-04-07T09:02:22.422Z,50.10
2019-04-07T09:04:53.399Z,48.60
2019-04-07T09:07:24.651Z,49.10
2019-04-07T09:09:53.560Z,47.50
2019-04-07T09:12:27.446Z,49.20
2019-04-07T09:14:54.562Z,52.10
2019-04-07T09:17:32.272Z,50.60
2019-04-07T09:20:09.446Z,47.30
2019-04-07T09:22:42.079Z,45.20
2019-04-07T09:25:28.733Z,45.70
2019-04-07T09:27:59.261Z,47.90
2019-04-07T09:30:35.686Z,47.10
2019-04-07T09:33:18.103Z,46.10
2019-04-07T09:35:59.257Z,50.10
2019-04-07T09:38:29.578Z,47.20
2019-04-07T09:41:17.204Z,45.80
2019-04-07T09:43:53.749Z,45.60
2019-04-07T11:49:19.517Z,51.40
2019-04-07T11:51:53.529Z,51.40
2019-04-07T11:54:26.287Z,51.10
2019-04-07T11:56:56.555Z,50.40
2019-04-07T11:59:28.529Z,49.40
2019-04-07T12:02:22.015Z,47.50
2019-04-07T12:04:57.759Z,50.00
2019-04-07T12:07:33.387Z,50.00
2019-04-07T12:10:22.485Z,49.60
2019-04-07T12:13:15.523Z,49.80
2019-04-07T12:16:04.169Z,47.40
2019-04-07T12:18:51.904Z,45.60
2019-04-07T12:21:27.849Z,46.60
2019-04-07T12:24:26.519Z,46.00
2019-04-07T12:26:59.619Z,47.60
2019-04-07T12:29:46.017Z,47.60
2019-04-07T12:32:26.026Z,48.20
2019-04-07T12:34:59.910Z,50.20
2019-04-07T12:37:39.333Z,49.60
2019-04-07T16:21:24.231Z,52.10
2019-04-07T16:23:59.233Z,51.50
2019-04-07T17:17:57.003Z,62.70
2019-04-07T18:24:01.378Z,61.40
2019-04-07T18:25:44.718Z,61.60
2019-04-07T18:32:12.013Z,61.50
2019-04-07T18:33:55.570Z,62.30
2019-04-07T18:36:55.437Z,62.30
2019-04-07T18:41:17.563Z,61.60
2019-04-07T18:42:41.438Z,62.90
2019-04-07T18:45:19.313Z,62.70
2019-04-07T18:47:57.124Z,62.80
2019-04-07T18:50:43.260Z,63.10
2019-04-07T18:53:33.227Z,62.70
2019-04-07T18:55:59.517Z,62.80
2019-04-07T18:58:33.246Z,63.60
2019-04-07T19:01:12.284Z,64.10
2019-04-07T19:03:58.153Z,64.20
2019-04-07T19:06:44.677Z,64.80
2019-04-07T19:09:20.593Z,64.50
2019-04-07T19:12:04.265Z,65.50
2019-04-07T19:14:48.874Z,66.00
2019-04-07T19:17:29.884Z,65.70
2019-04-07T19:20:17.829Z,66.10
2019-04-07T19:22:51.401Z,66.80
2019-04-07T19:28:46.553Z,67.10
2019-04-07T19:31:34.237Z,67.30
2019-04-07T19:34:22.563Z,67.50
2019-04-07T19:37:01.871Z,67.80
2019-04-07T19:39:40.471Z,68.50
2019-04-07T19:45:54.878Z,69.50
2019-04-07T19:48:29.328Z,72.00
2019-04-07T19:51:17.729Z,71.50
2019-04-07T19:54:31.421Z,72.10
2019-04-07T19:57:25.937Z,72.00
2019-04-07T20:00:06.936Z,72.60
2019-04-07T20:02:46.542Z,72.10
2019-04-07T20:21:43.756Z,75.60
2019-04-07T20:24:38.350Z,76.70
2019-04-07T20:37:07.254Z,78.60
2019-04-07T20:44:40.003Z,79.30
2019-04-07T20:45:53.794Z,79.60
2019-04-07T20:49:06.505Z,78.70
